createdAt,value
2022-12-14T00:00:46.722Z,39.47
2022-12-14T00:03:14.475Z,39.44
2022-12-14T00:05:42.175Z,39.65
2022-12-14T00:08:09.930Z,39.53
2022-12-14T00:10:38.346Z,39.42
2022-12-14T00:13:07.453Z,39.42
2022-12-14T00:15:35.127Z,39.40
2022-12-14T00:18:02.798Z,39.57
2022-12-14T00:20:30.313Z,39.49
2022-12-14T00:22:58.086Z,39.44
2022-12-14T00:25:25.660Z,39.50
2022-12-14T00:27:53.179Z,39.52
2022-12-14T00:30:22.042Z,39.37
2022-12-14T00:32:49.610Z,39.60
2022-12-14T00:35:18.024Z,39.60
2022-12-14T00:37:45.630Z,39.52
2022-12-14T00:40:16.556Z,39.41
2022-12-14T00:42:44.012Z,39.60
2022-12-14T00:45:11.862Z,39.65
2022-12-14T00:47:41.037Z,39.63
2022-12-14T00:50:09.788Z,39.68
2022-12-14T00:52:37.388Z,39.77
2022-12-14T00:55:05.546Z,39.56
2022-12-14T00:57:33.002Z,39.49
2022-12-14T01:00:00.484Z,39.54
2022-12-14T01:02:28.069Z,39.66
2022-12-14T01:04:56.961Z,39.47
2022-12-14T01:07:24.455Z,39.74
2022-12-14T01:09:52.077Z,39.60
2022-12-14T01:12:19.571Z,39.55
2022-12-14T01:14:47.155Z,39.63
2022-12-14T01:17:14.712Z,39.47
2022-12-14T01:19:42.182Z,39.53
2022-12-14T01:22:11.158Z,39.72
2022-12-14T01:24:38.875Z,39.57
2022-12-14T01:27:06.350Z,39.69
2022-12-14T01:29:33.913Z,39.47
2022-12-14T01:32:01.402Z,39.48
2022-12-14T01:34:28.891Z,39.55
2022-12-14T01:36:56.368Z,39.39
2022-12-14T01:39:25.186Z,39.51
2022-12-14T01:41:52.991Z,39.67
2022-12-14T01:44:55.698Z,39.61
2022-12-14T01:47:27.198Z,39.54
2022-12-14T01:49:56.750Z,39.59
2022-12-14T01:52:25.694Z,39.60
2022-12-14T01:54:56.035Z,39.71
2022-12-14T01:57:25.077Z,39.51
2022-12-14T01:59:52.789Z,39.58
2022-12-14T02:02:20.345Z,39.64
2022-12-14T02:04:50.483Z,39.54
2022-12-14T02:07:17.927Z,39.60
2022-12-14T02:09:46.153Z,39.61
2022-12-14T02:12:15.710Z,39.59
2022-12-14T02:14:43.162Z,39.50
2022-12-14T02:17:11.110Z,39.53
2022-12-14T02:19:38.581Z,39.56
2022-12-14T02:22:25.940Z,39.40
2022-12-14T02:25:06.466Z,39.57
2022-12-14T02:27:43.963Z,39.57
2022-12-14T02:30:13.678Z,39.36
2022-12-14T02:32:54.743Z,39.48
2022-12-14T02:35:27.858Z,39.49
2022-12-14T02:38:02.234Z,39.51
2022-12-14T02:40:31.576Z,39.46
2022-12-14T02:43:04.223Z,39.53
2022-12-14T02:45:36.663Z,39.56
2022-12-14T02:48:06.923Z,39.32
2022-12-14T02:50:36.033Z,39.58
2022-12-14T02:53:05.246Z,39.58
2022-12-14T02:55:34.916Z,39.67
2022-12-14T02:58:03.945Z,39.52
2022-12-14T03:00:32.223Z,39.52
2022-12-14T03:03:01.149Z,39.29
2022-12-14T03:05:28.668Z,39.43
2022-12-14T03:07:56.644Z,39.47
2022-12-14T03:10:30.768Z,39.45
2022-12-14T03:12:59.025Z,39.47
2022-12-14T03:15:26.963Z,39.54
2022-12-14T03:17:56.518Z,39.37
2022-12-14T03:20:26.285Z,39.40
2022-12-14T03:22:55.941Z,39.36
2022-12-14T03:25:26.054Z,39.46
2022-12-14T03:27:56.345Z,39.45
2022-12-14T03:30:57.750Z,39.42
2022-12-14T03:33:12.586Z,39.50
2022-12-14T03:35:44.457Z,39.42
2022-12-14T03:38:14.414Z,39.38
2022-12-14T03:40:46.650Z,39.21
2022-12-14T03:43:16.316Z,39.41
2022-12-14T03:45:46.010Z,39.39
2022-12-14T03:48:16.186Z,39.20
2022-12-14T03:50:45.461Z,39.39
2022-12-14T03:53:13.867Z,39.51
2022-12-14T03:55:43.814Z,39.30
2022-12-14T03:58:27.634Z,39.37
2022-12-14T04:00:57.665Z,39.40
2022-12-14T04:03:29.070Z,39.39
2022-12-14T04:06:00.096Z,39.33
2022-12-14T04:08:30.876Z,39.38
2022-12-14T04:11:16.298Z,39.35
2022-12-14T04:14:04.795Z,39.39
2022-12-14T04:16:53.112Z,39.31
2022-12-14T04:19:22.121Z,39.38
2022-12-14T04:21:52.702Z,39.36
2022-12-14T04:24:40.333Z,39.32
2022-12-14T04:27:10.319Z,39.16
2022-12-14T04:29:55.706Z,39.25
2022-12-14T04:32:24.938Z,39.41
2022-12-14T04:34:54.822Z,39.30
2022-12-14T04:37:23.840Z,39.23
2022-12-14T04:39:53.148Z,39.37
2022-12-14T04:42:22.122Z,39.13
2022-12-14T04:44:50.550Z,39.28
2022-12-14T04:47:18.155Z,39.20
2022-12-14T04:49:49.156Z,39.26
2022-12-14T04:52:18.225Z,39.33
2022-12-14T04:54:49.215Z,39.21
2022-12-14T04:57:19.413Z,39.19
2022-12-14T04:59:47.070Z,39.05
2022-12-14T05:02:19.703Z,39.20
2022-12-14T05:04:55.075Z,39.09
2022-12-14T05:07:29.302Z,39.09
2022-12-14T05:09:59.677Z,39.21
2022-12-14T05:12:29.303Z,38.82
2022-12-14T05:15:00.628Z,38.99
2022-12-14T05:17:28.228Z,38.85
2022-12-14T05:19:55.698Z,38.95
2022-12-14T05:22:23.163Z,38.96
2022-12-14T05:24:50.608Z,38.68
2022-12-14T05:27:19.405Z,38.70
2022-12-14T05:29:46.866Z,38.66
2022-12-14T05:32:14.343Z,38.66
2022-12-14T05:34:41.852Z,38.59
2022-12-14T05:37:14.559Z,38.42
2022-12-14T05:39:45.347Z,38.35
2022-12-14T05:42:12.818Z,38.44
2022-12-14T05:44:41.594Z,38.55
2022-12-14T05:47:09.098Z,38.59
2022-12-14T05:49:36.556Z,38.41
2022-12-14T05:52:04.217Z,38.37
2022-12-14T05:54:31.711Z,38.55
2022-12-14T05:56:59.511Z,38.40
2022-12-14T05:59:26.987Z,38.28
2022-12-14T06:01:56.011Z,38.32
2022-12-14T06:04:23.875Z,38.54
2022-12-14T06:06:51.610Z,38.43
2022-12-14T06:09:19.392Z,38.20
2022-12-14T06:11:47.111Z,38.11
2022-12-14T06:14:14.699Z,38.17
2022-12-14T06:16:42.453Z,38.32
2022-12-14T06:19:11.791Z,38.18
2022-12-14T06:21:40.284Z,38.21
2022-12-14T06:24:08.443Z,38.40
2022-12-14T06:26:37.668Z,38.32
2022-12-14T06:29:05.096Z,38.37
2022-12-14T06:31:33.002Z,38.22
2022-12-14T06:34:01.834Z,38.28
2022-12-14T06:36:31.619Z,38.31
2022-12-14T06:39:01.225Z,38.25
2022-12-14T06:41:28.716Z,38.24
2022-12-14T06:43:56.990Z,38.10
2022-12-14T06:46:25.635Z,38.11
2022-12-14T06:48:53.546Z,37.80
2022-12-14T06:51:21.296Z,37.94
2022-12-14T06:53:52.518Z,37.75
2022-12-14T06:56:20.690Z,38.20
2022-12-14T06:58:48.358Z,38.30
2022-12-14T07:01:16.905Z,35.28
2022-12-14T07:03:44.814Z,36.87
2022-12-14T07:06:12.320Z,37.86
2022-12-14T07:08:39.840Z,38.69
2022-12-14T07:11:10.265Z,38.69
2022-12-14T07:13:37.731Z,38.43
2022-12-14T07:16:05.985Z,38.33
2022-12-14T07:18:33.647Z,38.66
2022-12-14T07:21:01.966Z,39.03
2022-12-14T07:23:30.844Z,39.11
2022-12-14T07:26:01.892Z,39.15
2022-12-14T07:28:30.670Z,39.26
2022-12-14T07:30:58.467Z,39.45
2022-12-14T07:33:26.452Z,39.42
2022-12-14T07:35:54.419Z,39.60
2022-12-14T07:38:21.864Z,39.69
2022-12-14T07:40:49.327Z,39.67
2022-12-14T07:43:18.705Z,39.88
2022-12-14T07:45:47.481Z,39.97
2022-12-14T07:48:14.953Z,40.15
2022-12-14T07:50:42.436Z,40.01
2022-12-14T07:53:09.868Z,40.00
2022-12-14T07:55:37.328Z,39.96
2022-12-14T07:58:04.771Z,39.75
2022-12-14T08:00:32.236Z,39.76
2022-12-14T08:03:01.121Z,39.48
2022-12-14T08:05:28.559Z,39.09
2022-12-14T08:07:56.016Z,39.02
2022-12-14T08:10:23.469Z,39.14
2022-12-14T08:12:50.992Z,39.06
2022-12-14T08:15:18.448Z,39.03
2022-12-14T08:17:45.876Z,38.93
2022-12-14T08:20:14.815Z,38.93
2022-12-14T08:22:42.260Z,38.90
2022-12-14T08:25:10.321Z,38.97
2022-12-14T08:27:37.779Z,38.71
2022-12-14T08:30:06.253Z,38.92
2022-12-14T08:32:34.571Z,38.82
2022-12-14T08:35:02.200Z,38.70
2022-12-14T08:37:30.993Z,38.60
2022-12-14T08:39:58.475Z,38.72
2022-12-14T08:42:26.043Z,39.68
2022-12-14T08:44:53.512Z,40.21
2022-12-14T08:47:20.972Z,39.75
2022-12-14T08:49:48.458Z,39.39
2022-12-14T08:52:16.282Z,39.42
2022-12-14T08:54:45.077Z,39.42
2022-12-14T08:57:12.553Z,39.32
2022-12-14T09:00:00.924Z,39.38
2022-12-14T09:02:27.569Z,39.06
2022-12-14T09:04:55.561Z,38.97
2022-12-14T09:07:23.045Z,39.17
2022-12-14T09:09:51.849Z,39.30
2022-12-14T09:12:19.310Z,39.29
2022-12-14T09:14:46.748Z,39.12
2022-12-14T09:17:17.353Z,39.34
2022-12-14T09:19:44.806Z,39.19
2022-12-14T09:22:13.250Z,39.22
2022-12-14T09:24:40.735Z,39.31
2022-12-14T09:27:09.721Z,39.52
2022-12-14T09:29:37.186Z,39.25
2022-12-14T09:32:05.201Z,39.10
2022-12-14T09:34:32.703Z,39.15
2022-12-14T09:37:04.425Z,39.25
2022-12-14T09:39:32.050Z,39.35
2022-12-14T09:42:04.544Z,39.31
2022-12-14T09:44:39.722Z,39.69
2022-12-14T09:47:09.526Z,39.44
2022-12-14T09:49:41.038Z,39.23
2022-12-14T09:52:11.407Z,39.30
2022-12-14T09:54:39.376Z,39.13
2022-12-14T09:57:09.958Z,39.42
2022-12-14T09:59:38.717Z,39.29
2022-12-14T10:02:33.038Z,39.72
2022-12-14T10:05:07.414Z,39.26
2022-12-14T10:07:37.209Z,40.04
2022-12-14T10:10:05.745Z,40.46
2022-12-14T10:12:46.485Z,40.65
2022-12-14T10:15:21.998Z,40.58
2022-12-14T10:18:05.332Z,40.41
2022-12-14T10:20:36.186Z,40.04
2022-12-14T10:23:03.763Z,39.83
2022-12-14T10:25:32.161Z,39.89
2022-12-14T10:28:11.828Z,39.71
2022-12-14T10:30:41.784Z,39.51
2022-12-14T10:33:13.571Z,39.60
2022-12-14T10:35:44.411Z,39.52
2022-12-14T10:38:15.886Z,39.84
2022-12-14T10:40:46.956Z,39.56
2022-12-14T10:43:26.804Z,39.35
2022-12-14T10:45:59.649Z,39.13
2022-12-14T10:48:33.797Z,39.12
2022-12-14T10:51:02.945Z,39.00
2022-12-14T10:53:38.716Z,38.90
2022-12-14T10:56:12.031Z,39.05
2022-12-14T10:58:39.520Z,38.82
2022-12-14T11:01:11.927Z,38.82
2022-12-14T11:03:39.672Z,38.73
2022-12-14T11:06:11.940Z,38.62
2022-12-14T11:08:41.006Z,38.70
2022-12-14T11:11:12.774Z,38.49
2022-12-14T11:13:49.026Z,38.57
2022-12-14T11:16:24.852Z,38.58
2022-12-14T11:18:58.759Z,38.39
2022-12-14T11:21:36.663Z,38.44
2022-12-14T11:24:04.437Z,38.38
2022-12-14T11:26:34.632Z,38.09
2022-12-14T11:29:02.204Z,38.67
2022-12-14T11:31:33.841Z,38.71
2022-12-14T11:34:01.485Z,38.64
2022-12-14T11:36:32.146Z,38.81
2022-12-14T11:39:00.557Z,39.02
2022-12-14T11:41:28.701Z,39.11
2022-12-14T11:44:04.700Z,39.07
2022-12-14T11:46:45.163Z,39.00
2022-12-14T11:49:26.996Z,39.21
2022-12-14T11:51:58.699Z,39.04
2022-12-14T11:54:26.264Z,39.30
2022-12-14T11:56:57.457Z,39.20
2022-12-14T11:59:24.948Z,39.16
2022-12-14T12:01:55.679Z,39.07
2022-12-14T12:04:23.209Z,39.02
2022-12-14T12:06:50.735Z,39.08
2022-12-14T12:09:26.088Z,39.10
2022-12-14T12:11:53.635Z,39.04
2022-12-14T12:14:26.157Z,39.03
2022-12-14T12:16:54.993Z,38.99
2022-12-14T12:19:24.943Z,38.94
2022-12-14T12:21:52.408Z,39.24
2022-12-14T12:24:21.598Z,39.01
2022-12-14T12:26:50.894Z,39.22
2022-12-14T12:29:22.657Z,39.14
2022-12-14T12:31:53.123Z,39.07
2022-12-14T12:34:23.894Z,38.99
2022-12-14T12:37:24.752Z,39.14
2022-12-14T12:39:39.599Z,39.00
2022-12-14T12:42:09.936Z,39.16
2022-12-14T12:44:42.329Z,39.19
2022-12-14T12:47:34.389Z,39.09
2022-12-14T12:50:15.059Z,39.12
2022-12-14T12:52:49.570Z,39.32
2022-12-14T12:55:18.016Z,39.16
2022-12-14T12:57:46.099Z,39.40
2022-12-14T13:00:17.208Z,39.27
2022-12-14T13:02:46.417Z,39.10
2022-12-14T13:08:08.417Z,39.06
2022-12-14T13:10:42.062Z,39.10
2022-12-14T13:13:19.381Z,38.94
2022-12-14T13:15:48.032Z,38.84
2022-12-14T13:18:41.159Z,38.65
2022-12-14T13:21:28.567Z,38.60
2022-12-14T13:23:56.094Z,38.43
2022-12-14T13:26:57.229Z,38.35
2022-12-14T13:29:28.761Z,38.26
2022-12-14T13:31:59.387Z,38.15
2022-12-14T13:34:32.641Z,38.19
2022-12-14T13:37:27.390Z,38.23
2022-12-14T13:40:18.027Z,38.03
2022-12-14T13:42:51.900Z,37.93
2022-12-14T13:45:20.497Z,38.05
2022-12-14T13:47:51.370Z,37.90
2022-12-14T13:50:37.637Z,37.99
2022-12-14T13:53:13.378Z,38.10
2022-12-14T13:55:41.533Z,37.99
2022-12-14T13:58:19.880Z,37.97
2022-12-14T14:01:01.325Z,37.93
2022-12-14T14:03:48.460Z,37.93
2022-12-14T14:06:23.741Z,38.00
2022-12-14T14:08:52.700Z,38.07
2022-12-14T14:11:45.063Z,38.03
2022-12-14T14:14:17.843Z,38.22
2022-12-14T14:16:45.567Z,38.54
2022-12-14T14:19:19.536Z,38.49
2022-12-14T14:24:58.691Z,38.72
2022-12-14T14:27:28.437Z,38.79
2022-12-14T14:29:56.054Z,39.00
2022-12-14T14:32:38.689Z,39.12
2022-12-14T14:35:07.855Z,39.03
2022-12-14T14:37:35.913Z,39.41
2022-12-14T14:40:23.505Z,39.24
2022-12-14T14:43:00.031Z,39.09
2022-12-14T14:45:37.194Z,39.23
2022-12-14T14:48:10.871Z,39.10
2022-12-14T14:50:39.269Z,39.24
2022-12-14T14:53:30.612Z,39.13
2022-12-14T14:56:17.635Z,39.24
2022-12-14T14:58:45.097Z,39.10
2022-12-14T15:01:21.854Z,39.32
2022-12-14T15:06:13.414Z,38.00
2022-12-14T15:08:41.305Z,38.56
2022-12-14T15:11:16.002Z,38.57
2022-12-14T15:13:47.060Z,38.93
2022-12-14T15:16:25.974Z,38.90
2022-12-14T15:18:53.465Z,39.03
2022-12-14T15:21:20.933Z,38.96
2022-12-14T15:23:50.031Z,39.03
2022-12-14T15:26:20.398Z,39.24
2022-12-14T15:28:49.813Z,39.07
2022-12-14T15:31:17.424Z,39.26
2022-12-14T15:33:46.408Z,39.44
2022-12-14T15:36:15.567Z,39.37
2022-12-14T15:38:43.016Z,39.30
2022-12-14T15:41:14.963Z,39.45
2022-12-14T15:43:45.634Z,39.41
2022-12-14T15:46:16.444Z,39.27
2022-12-14T15:48:43.974Z,39.59
2022-12-14T15:51:12.715Z,39.52
2022-12-14T15:53:41.572Z,39.69
2022-12-14T15:56:24.755Z,39.42
2022-12-14T15:58:53.798Z,39.42
2022-12-14T16:01:23.795Z,39.47
2022-12-14T16:03:52.569Z,39.71
2022-12-14T16:06:20.013Z,39.41
2022-12-14T16:08:49.342Z,39.65
2022-12-14T16:11:19.963Z,39.41
2022-12-14T16:13:47.411Z,39.44
2022-12-14T16:16:16.455Z,39.55
2022-12-14T16:18:45.422Z,39.59
2022-12-14T16:21:26.951Z,39.60
2022-12-14T16:23:54.520Z,39.56
2022-12-14T16:26:23.346Z,39.52
2022-12-14T16:28:50.834Z,39.55
2022-12-14T16:31:20.406Z,39.51
2022-12-14T16:33:50.183Z,39.51
2022-12-14T16:36:25.120Z,39.70
2022-12-14T16:38:55.880Z,39.59
2022-12-14T16:41:34.962Z,39.62
2022-12-14T16:44:02.509Z,39.58
2022-12-14T16:46:31.696Z,39.61
2022-12-14T16:49:19.875Z,39.47
2022-12-14T16:52:14.382Z,39.59
2022-12-14T16:54:34.914Z,39.60
2022-12-14T16:57:03.699Z,39.50
2022-12-14T16:59:40.727Z,39.54
2022-12-14T17:02:25.479Z,39.55
2022-12-14T17:04:53.094Z,39.54
2022-12-14T17:07:21.742Z,39.42
2022-12-14T17:09:49.306Z,39.44
2022-12-14T17:12:17.123Z,39.61
2022-12-14T17:14:49.766Z,39.71
2022-12-14T17:17:19.165Z,39.48
2022-12-14T17:19:47.949Z,39.42
2022-12-14T17:22:18.309Z,39.32
2022-12-14T17:24:45.790Z,39.36
2022-12-14T17:27:15.662Z,39.26
2022-12-14T17:29:43.284Z,39.33
2022-12-14T17:32:11.158Z,39.26
2022-12-14T17:34:38.638Z,39.42
2022-12-14T17:37:12.288Z,39.24
2022-12-14T17:39:39.776Z,39.18
2022-12-14T17:42:07.247Z,39.24
2022-12-14T17:44:34.706Z,39.23
2022-12-14T17:47:02.148Z,39.29
2022-12-14T17:49:35.887Z,39.29
2022-12-14T17:52:04.174Z,39.33
2022-12-14T17:54:33.006Z,39.29
2022-12-14T17:57:00.574Z,39.31
2022-12-14T17:59:28.021Z,39.31
2022-12-14T18:01:55.509Z,39.23
2022-12-14T18:04:23.062Z,38.97
2022-12-14T18:06:50.502Z,39.03
2022-12-14T18:09:18.460Z,39.14
2022-12-14T18:12:20.957Z,39.21
2022-12-14T18:14:34.693Z,39.26
2022-12-14T18:17:03.449Z,38.99
2022-12-14T18:19:34.144Z,39.04
2022-12-14T18:22:01.563Z,39.03
2022-12-14T18:24:29.770Z,39.03
2022-12-14T18:26:58.529Z,39.11
2022-12-14T18:29:26.080Z,39.17
2022-12-14T18:31:53.796Z,38.95
2022-12-14T18:34:21.284Z,39.10
2022-12-14T18:36:49.650Z,38.87
2022-12-14T18:39:18.152Z,39.14
2022-12-14T18:41:45.730Z,38.95
2022-12-14T18:44:14.574Z,38.98
2022-12-14T18:46:42.074Z,38.84
2022-12-14T18:49:09.535Z,38.83
2022-12-14T18:51:36.995Z,38.97
2022-12-14T18:54:04.588Z,39.10
2022-12-14T18:56:32.149Z,39.12
2022-12-14T18:59:00.304Z,39.06
2022-12-14T19:01:29.246Z,38.70
2022-12-14T19:03:56.960Z,38.93
2022-12-14T19:09:13.188Z,38.68
2022-12-14T19:11:41.623Z,38.71
2022-12-14T19:14:09.239Z,38.68
2022-12-14T19:16:38.531Z,38.88
2022-12-14T19:19:06.088Z,38.98
2022-12-14T19:21:33.590Z,38.87
2022-12-14T19:24:01.103Z,38.81
2022-12-14T19:26:29.120Z,38.66
2022-12-14T19:28:56.718Z,38.86
2022-12-14T19:31:24.439Z,38.51
2022-12-14T19:33:53.954Z,38.63
2022-12-14T19:36:21.445Z,38.84
2022-12-14T19:38:49.263Z,38.67
2022-12-14T19:41:17.649Z,38.57
2022-12-14T19:43:45.111Z,38.65
2022-12-14T19:46:13.640Z,38.58
2022-12-14T19:48:42.409Z,38.74
2022-12-14T19:51:11.964Z,38.81
2022-12-14T19:53:39.747Z,38.51
2022-12-14T19:56:08.188Z,38.45
2022-12-14T19:58:35.713Z,38.56
2022-12-14T20:01:03.202Z,38.73
2022-12-14T20:03:31.243Z,38.55
2022-12-14T20:05:59.754Z,38.56
2022-12-14T20:08:29.350Z,38.55
2022-12-14T20:10:57.056Z,38.57
2022-12-14T20:13:25.489Z,38.53
2022-12-14T20:15:53.801Z,38.44
2022-12-14T20:18:21.356Z,38.55
2022-12-14T20:20:49.974Z,38.35
2022-12-14T20:23:17.884Z,38.41
2022-12-14T20:25:46.694Z,38.42
2022-12-14T20:28:14.239Z,38.44
2022-12-14T20:30:43.778Z,38.35
2022-12-14T20:33:11.231Z,38.34
2022-12-14T20:35:38.714Z,38.34
2022-12-14T20:38:06.213Z,38.24
2022-12-14T20:40:38.379Z,38.25
2022-12-14T20:43:07.985Z,38.36
2022-12-14T20:45:38.326Z,38.41
2022-12-14T20:48:06.436Z,38.22
2022-12-14T20:50:33.925Z,38.36
2022-12-14T20:53:01.768Z,38.35
2022-12-14T20:55:29.262Z,38.33
2022-12-14T20:57:56.733Z,38.18
2022-12-14T21:00:25.557Z,38.08
2022-12-14T21:02:53.330Z,38.11
2022-12-14T21:05:21.007Z,38.17
2022-12-14T21:07:48.703Z,38.20
2022-12-14T21:10:16.268Z,38.15
2022-12-14T21:12:42.805Z,38.09
2022-12-14T21:15:10.539Z,37.90
2022-12-14T21:17:39.315Z,38.18
2022-12-14T21:20:07.536Z,38.09
2022-12-14T21:22:35.316Z,38.00
2022-12-14T21:25:04.786Z,37.99
2022-12-14T21:27:33.031Z,38.02
2022-12-14T21:30:00.985Z,37.92
2022-12-14T21:32:28.566Z,38.03
2022-12-14T21:34:57.378Z,37.87
2022-12-14T21:37:24.828Z,37.92
2022-12-14T21:39:54.247Z,38.00
2022-12-14T21:42:21.869Z,37.91
2022-12-14T21:44:50.093Z,37.99
2022-12-14T21:47:18.658Z,38.02
2022-12-14T21:49:46.327Z,37.91
2022-12-14T21:52:16.222Z,37.87
2022-12-14T21:54:43.879Z,37.89
2022-12-14T21:57:32.088Z,37.88
2022-12-14T21:59:59.627Z,37.87
2022-12-14T22:02:27.390Z,37.82
2022-12-14T22:04:56.314Z,37.82
2022-12-14T22:07:26.577Z,38.05
2022-12-14T22:09:53.837Z,37.76
2022-12-14T22:12:21.358Z,37.84
2022-12-14T22:14:49.220Z,37.85
2022-12-14T22:17:16.687Z,37.93
2022-12-14T22:19:44.151Z,37.81
2022-12-14T22:22:13.740Z,37.89
2022-12-14T22:24:42.574Z,37.87
2022-12-14T22:27:10.434Z,37.78
2022-12-14T22:29:37.930Z,37.80
2022-12-14T22:32:06.123Z,37.71
2022-12-14T22:34:33.629Z,37.70
2022-12-14T22:37:01.120Z,37.66
2022-12-14T22:39:28.580Z,37.61
2022-12-14T22:41:57.477Z,37.69
2022-12-14T22:44:24.952Z,37.62
2022-12-14T22:46:52.987Z,37.47
2022-12-14T22:49:21.172Z,37.60
2022-12-14T22:51:48.664Z,37.55
2022-12-14T22:54:18.137Z,37.55
2022-12-14T22:56:46.726Z,37.59
2022-12-14T22:59:16.848Z,37.51
2022-12-14T23:01:49.550Z,37.58
2022-12-14T23:04:17.869Z,37.45
2022-12-14T23:06:45.594Z,37.42
2022-12-14T23:09:30.912Z,37.56
2022-12-14T23:12:21.241Z,37.60
2022-12-14T23:15:08.159Z,37.57
2022-12-14T23:17:53.612Z,37.44
2022-12-14T23:20:38.712Z,37.45
2022-12-14T23:23:24.550Z,37.46
2022-12-14T23:26:09.809Z,37.42
2022-12-14T23:28:55.036Z,37.39
2022-12-14T23:31:41.769Z,37.49
2022-12-14T23:34:27.017Z,37.30
2022-12-14T23:37:16.515Z,37.42
2022-12-14T23:40:05.298Z,37.28
2022-12-14T23:42:50.747Z,37.45
2022-12-14T23:45:36.000Z,37.50
2022-12-14T23:48:22.837Z,37.50
2022-12-14T23:51:08.175Z,37.21
2022-12-14T23:53:53.526Z,37.38
2022-12-14T23:56:38.684Z,37.22
2022-12-14T23:59:29.740Z,37.25
